sensor_id;sensor_type;location;lat;lon;timestamp;P1;durP1;ratioP1;P2;durP2;ratioP2
10769;SDS011;5437;50.852;4.438;2023-04-01T00:02:11;5.90;;;2.53;;
10769;SDS011;5437;50.852;4.438;2023-04-01T00:04:37;5.55;;;1.95;;
10769;SDS011;5437;50.852;4.438;2023-04-01T00:07:03;6.22;;;2.00;;
10769;SDS011;5437;50.852;4.438;2023-04-01T00:09:29;6.85;;;2.20;;
10769;SDS011;5437;50.852;4.438;2023-04-01T00:11:55;7.32;;;2.22;;
10769;SDS011;5437;50.852;4.438;2023-04-01T00:14:21;6.43;;;2.17;;
10769;SDS011;5437;50.852;4.438;2023-04-01T00:16:47;6.72;;;2.15;;
10769;SDS011;5437;50.852;4.438;2023-04-01T00:19:13;4.13;;;2.25;;
10769;SDS011;5437;50.852;4.438;2023-04-01T00:21:40;5.10;;;2.00;;
10769;SDS011;5437;50.852;4.438;2023-04-01T00:24:06;4.70;;;2.22;;
10769;SDS011;5437;50.852;4.438;2023-04-01T00:26:32;4.30;;;1.90;;
10769;SDS011;5437;50.852;4.438;2023-04-01T00:28:58;5.13;;;2.17;;
10769;SDS011;5437;50.852;4.438;2023-04-01T00:31:25;5.60;;;1.98;;
10769;SDS011;5437;50.852;4.438;2023-04-01T00:33:51;5.25;;;2.13;;
10769;SDS011;5437;50.852;4.438;2023-04-01T00:36:19;4.18;;;1.90;;
10769;SDS011;5437;50.852;4.438;2023-04-01T00:38:46;6.22;;;2.33;;
10769;SDS011;5437;50.852;4.438;2023-04-01T00:41:12;5.03;;;1.95;;
10769;SDS011;5437;50.852;4.438;2023-04-01T00:43:40;3.22;;;1.60;;
10769;SDS011;5437;50.852;4.438;2023-04-01T00:46:06;4.13;;;1.80;;
10769;SDS011;5437;50.852;4.438;2023-04-01T00:48:33;5.25;;;1.70;;
10769;SDS011;5437;50.852;4.438;2023-04-01T00:51:07;3.78;;;1.70;;
10769;SDS011;5437;50.852;4.438;2023-04-01T00:53:36;2.55;;;1.42;;
10769;SDS011;5437;50.852;4.438;2023-04-01T00:56:09;3.75;;;1.73;;
10769;SDS011;5437;50.852;4.438;2023-04-01T00:58:38;3.70;;;1.77;;
10769;SDS011;5437;50.852;4.438;2023-04-01T01:01:04;3.35;;;2.05;;
10769;SDS011;5437;50.852;4.438;2023-04-01T01:03:31;2.67;;;1.80;;
10769;SDS011;5437;50.852;4.438;2023-04-01T01:06:01;3.42;;;1.70;;
10769;SDS011;5437;50.852;4.438;2023-04-01T01:11:14;2.78;;;1.52;;
10769;SDS011;5437;50.852;4.438;2023-04-01T01:13:48;2.65;;;1.52;;
10769;SDS011;5437;50.852;4.438;2023-04-01T01:16:25;2.75;;;1.60;;
10769;SDS011;5437;50.852;4.438;2023-04-01T01:18:55;3.22;;;1.40;;
10769;SDS011;5437;50.852;4.438;2023-04-01T01:26:48;2.75;;;1.20;;
10769;SDS011;5437;50.852;4.438;2023-04-01T01:34:32;2.63;;;1.20;;
10769;SDS011;5437;50.852;4.438;2023-04-01T01:37:03;2.25;;;1.20;;
10769;SDS011;5437;50.852;4.438;2023-04-01T01:39:31;1.50;;;1.40;;
10769;SDS011;5437;50.852;4.438;2023-04-01T01:42:00;2.67;;;1.35;;
10769;SDS011;5437;50.852;4.438;2023-04-01T01:44:26;1.95;;;1.30;;
10769;SDS011;5437;50.852;4.438;2023-04-01T01:46:53;2.83;;;1.55;;
10769;SDS011;5437;50.852;4.438;2023-04-01T01:49:20;1.65;;;1.40;;
10769;SDS011;5437;50.852;4.438;2023-04-01T01:51:47;3.03;;;1.63;;
10769;SDS011;5437;50.852;4.438;2023-04-01T01:54:13;2.85;;;1.80;;
10769;SDS011;5437;50.852;4.438;2023-04-01T01:56:41;2.67;;;1.95;;
10769;SDS011;5437;50.852;4.438;2023-04-01T01:59:08;2.47;;;2.00;;
10769;SDS011;5437;50.852;4.438;2023-04-01T02:01:36;5.70;;;3.38;;
10769;SDS011;5437;50.852;4.438;2023-04-01T02:04:03;3.40;;;2.70;;
10769;SDS011;5437;50.852;4.438;2023-04-01T02:06:30;4.57;;;3.00;;
10769;SDS011;5437;50.852;4.438;2023-04-01T02:09:02;4.60;;;3.05;;
10769;SDS011;5437;50.852;4.438;2023-04-01T02:11:30;2.97;;;2.53;;
10769;SDS011;5437;50.852;4.438;2023-04-01T02:13:59;5.72;;;3.42;;
10769;SDS011;5437;50.852;4.438;2023-04-01T02:16:28;6.65;;;3.55;;
10769;SDS011;5437;50.852;4.438;2023-04-01T02:18:55;5.75;;;2.95;;
10769;SDS011;5437;50.852;4.438;2023-04-01T02:21:23;3.97;;;3.47;;
10769;SDS011;5437;50.852;4.438;2023-04-01T02:23:50;7.22;;;3.25;;
10769;SDS011;5437;50.852;4.438;2023-04-01T02:26:17;6.18;;;3.60;;
10769;SDS011;5437;50.852;4.438;2023-04-01T02:28:44;5.03;;;3.45;;
10769;SDS011;5437;50.852;4.438;2023-04-01T02:31:12;5.07;;;3.55;;
10769;SDS011;5437;50.852;4.438;2023-04-01T02:33:38;6.47;;;3.17;;
10769;SDS011;5437;50.852;4.438;2023-04-01T02:36:05;4.97;;;3.13;;
10769;SDS011;5437;50.852;4.438;2023-04-01T02:38:31;5.72;;;2.97;;
10769;SDS011;5437;50.852;4.438;2023-04-01T02:40:58;5.13;;;2.95;;
10769;SDS011;5437;50.852;4.438;2023-04-01T02:43:25;6.13;;;3.10;;
10769;SDS011;5437;50.852;4.438;2023-04-01T02:45:51;6.55;;;3.13;;
10769;SDS011;5437;50.852;4.438;2023-04-01T02:48:17;6.32;;;2.80;;
10769;SDS011;5437;50.852;4.438;2023-04-01T02:50:43;6.93;;;2.95;;
10769;SDS011;5437;50.852;4.438;2023-04-01T02:53:10;7.15;;;2.80;;
10769;SDS011;5437;50.852;4.438;2023-04-01T02:55:36;6.43;;;3.00;;
10769;SDS011;5437;50.852;4.438;2023-04-01T02:58:03;5.22;;;2.83;;
10769;SDS011;5437;50.852;4.438;2023-04-01T03:00:29;6.70;;;3.25;;
10769;SDS011;5437;50.852;4.438;2023-04-01T03:02:55;4.45;;;3.00;;
10769;SDS011;5437;50.852;4.438;2023-04-01T03:05:21;5.22;;;2.97;;
10769;SDS011;5437;50.852;4.438;2023-04-01T03:07:47;7.32;;;3.00;;
10769;SDS011;5437;50.852;4.438;2023-04-01T03:10:13;5.78;;;3.03;;
10769;SDS011;5437;50.852;4.438;2023-04-01T03:12:40;5.57;;;2.85;;
10769;SDS011;5437;50.852;4.438;2023-04-01T03:15:06;6.13;;;2.80;;
10769;SDS011;5437;50.852;4.438;2023-04-01T03:17:32;4.63;;;2.65;;
10769;SDS011;5437;50.852;4.438;2023-04-01T03:19:58;4.82;;;3.22;;
10769;SDS011;5437;50.852;4.438;2023-04-01T03:22:24;6.35;;;3.22;;
10769;SDS011;5437;50.852;4.438;2023-04-01T03:24:51;8.68;;;3.25;;
10769;SDS011;5437;50.852;4.438;2023-04-01T03:27:17;5.40;;;3.22;;
10769;SDS011;5437;50.852;4.438;2023-04-01T03:29:43;5.70;;;3.42;;
10769;SDS011;5437;50.852;4.438;2023-04-01T03:32:09;8.30;;;4.15;;
10769;SDS011;5437;50.852;4.438;2023-04-01T03:34:35;6.65;;;4.13;;
10769;SDS011;5437;50.852;4.438;2023-04-01T03:37:01;8.25;;;4.80;;
10769;SDS011;5437;50.852;4.438;2023-04-01T03:39:27;6.53;;;4.72;;
10769;SDS011;5437;50.852;4.438;2023-04-01T03:41:53;6.20;;;4.30;;
10769;SDS011;5437;50.852;4.438;2023-04-01T03:44:19;8.00;;;4.75;;
10769;SDS011;5437;50.852;4.438;2023-04-01T03:46:45;10.00;;;5.15;;
10769;SDS011;5437;50.852;4.438;2023-04-01T03:49:11;8.20;;;5.22;;
10769;SDS011;5437;50.852;4.438;2023-04-01T03:51:38;9.07;;;5.15;;
10769;SDS011;5437;50.852;4.438;2023-04-01T03:54:04;13.30;;;5.57;;
10769;SDS011;5437;50.852;4.438;2023-04-01T03:56:31;8.95;;;5.45;;
10769;SDS011;5437;50.852;4.438;2023-04-01T03:58:57;9.30;;;5.18;;
10769;SDS011;5437;50.852;4.438;2023-04-01T04:01:23;10.63;;;5.72;;
10769;SDS011;5437;50.852;4.438;2023-04-01T04:03:49;7.50;;;5.05;;
10769;SDS011;5437;50.852;4.438;2023-04-01T04:06:17;10.95;;;4.97;;
10769;SDS011;5437;50.852;4.438;2023-04-01T04:08:43;8.45;;;5.00;;
10769;SDS011;5437;50.852;4.438;2023-04-01T04:11:09;9.68;;;5.22;;
10769;SDS011;5437;50.852;4.438;2023-04-01T04:13:36;8.52;;;5.00;;
10769;SDS011;5437;50.852;4.438;2023-04-01T04:16:02;9.57;;;5.13;;
10769;SDS011;5437;50.852;4.438;2023-04-01T04:18:29;9.85;;;5.15;;
10769;SDS011;5437;50.852;4.438;2023-04-01T04:20:55;8.73;;;4.75;;
10769;SDS011;5437;50.852;4.438;2023-04-01T04:23:21;8.25;;;4.40;;
10769;SDS011;5437;50.852;4.438;2023-04-01T04:25:54;5.47;;;4.22;;
10769;SDS011;5437;50.852;4.438;2023-04-01T04:28:21;7.25;;;4.45;;
10769;SDS011;5437;50.852;4.438;2023-04-01T04:30:47;6.53;;;4.22;;
10769;SDS011;5437;50.852;4.438;2023-04-01T04:33:13;9.85;;;4.10;;
10769;SDS011;5437;50.852;4.438;2023-04-01T04:35:39;5.50;;;3.42;;
10769;SDS011;5437;50.852;4.438;2023-04-01T04:38:05;6.60;;;3.75;;
10769;SDS011;5437;50.852;4.438;2023-04-01T04:40:31;4.13;;;3.00;;
10769;SDS011;5437;50.852;4.438;2023-04-01T04:42:57;3.53;;;3.03;;
10769;SDS011;5437;50.852;4.438;2023-04-01T04:45:23;3.40;;;2.80;;
10769;SDS011;5437;50.852;4.438;2023-04-01T04:47:49;5.38;;;2.92;;
10769;SDS011;5437;50.852;4.438;2023-04-01T04:50:15;4.30;;;3.15;;
10769;SDS011;5437;50.852;4.438;2023-04-01T04:52:41;3.63;;;2.78;;
10769;SDS011;5437;50.852;4.438;2023-04-01T04:55:07;4.18;;;2.90;;
10769;SDS011;5437;50.852;4.438;2023-04-01T04:57:33;3.75;;;2.80;;
10769;SDS011;5437;50.852;4.438;2023-04-01T05:00:00;3.80;;;2.38;;
10769;SDS011;5437;50.852;4.438;2023-04-01T05:02:26;2.50;;;2.28;;
10769;SDS011;5437;50.852;4.438;2023-04-01T05:04:52;3.83;;;2.65;;
10769;SDS011;5437;50.852;4.438;2023-04-01T05:07:18;2.65;;;2.38;;
10769;SDS011;5437;50.852;4.438;2023-04-01T05:09:44;2.97;;;2.40;;
10769;SDS011;5437;50.852;4.438;2023-04-01T05:12:10;2.80;;;2.50;;
10769;SDS011;5437;50.852;4.438;2023-04-01T05:14:38;2.75;;;2.47;;
10769;SDS011;5437;50.852;4.438;2023-04-01T05:17:04;2.60;;;2.30;;
10769;SDS011;5437;50.852;4.438;2023-04-01T05:19:33;3.58;;;2.75;;
10769;SDS011;5437;50.852;4.438;2023-04-01T05:21:59;3.13;;;2.67;;
10769;SDS011;5437;50.852;4.438;2023-04-01T05:24:25;3.42;;;2.67;;
10769;SDS011;5437;50.852;4.438;2023-04-01T05:26:51;4.88;;;2.90;;
10769;SDS011;5437;50.852;4.438;2023-04-01T05:29:17;4.85;;;3.03;;
10769;SDS011;5437;50.852;4.438;2023-04-01T05:31:43;3.78;;;3.13;;
10769;SDS011;5437;50.852;4.438;2023-04-01T05:34:09;5.90;;;3.20;;
10769;SDS011;5437;50.852;4.438;2023-04-01T05:36:35;5.53;;;3.80;;
10769;SDS011;5437;50.852;4.438;2023-04-01T05:39:01;4.75;;;3.40;;
10769;SDS011;5437;50.852;4.438;2023-04-01T05:41:28;4.93;;;3.75;;
10769;SDS011;5437;50.852;4.438;2023-04-01T05:43:54;5.50;;;4.03;;
10769;SDS011;5437;50.852;4.438;2023-04-01T05:46:20;5.93;;;4.22;;
10769;SDS011;5437;50.852;4.438;2023-04-01T05:48:46;7.93;;;4.70;;
10769;SDS011;5437;50.852;4.438;2023-04-01T05:51:15;5.78;;;4.50;;
10769;SDS011;5437;50.852;4.438;2023-04-01T05:53:41;9.00;;;4.43;;
10769;SDS011;5437;50.852;4.438;2023-04-01T05:56:08;6.60;;;4.15;;
10769;SDS011;5437;50.852;4.438;2023-04-01T05:58:37;7.78;;;4.82;;
10769;SDS011;5437;50.852;4.438;2023-04-01T06:01:04;6.22;;;4.72;;
10769;SDS011;5437;50.852;4.438;2023-04-01T06:03:30;6.68;;;5.28;;
10769;SDS011;5437;50.852;4.438;2023-04-01T06:05:56;7.57;;;5.15;;
10769;SDS011;5437;50.852;4.438;2023-04-01T06:08:23;7.88;;;5.18;;
10769;SDS011;5437;50.852;4.438;2023-04-01T06:13:32;7.65;;;5.00;;
10769;SDS011;5437;50.852;4.438;2023-04-01T06:29:00;8.05;;;5.93;;
10769;SDS011;5437;50.852;4.438;2023-04-01T06:46:55;7.13;;;5.05;;
10769;SDS011;5437;50.852;4.438;2023-04-01T06:54:48;7.18;;;4.65;;
10769;SDS011;5437;50.852;4.438;2023-04-01T06:57:28;9.13;;;5.70;;
10769;SDS011;5437;50.852;4.438;2023-04-01T06:59:55;6.13;;;4.68;;
10769;SDS011;5437;50.852;4.438;2023-04-01T07:02:34;8.45;;;5.20;;
10769;SDS011;5437;50.852;4.438;2023-04-01T07:05:03;7.20;;;4.90;;
10769;SDS011;5437;50.852;4.438;2023-04-01T07:10:11;5.53;;;4.40;;
10769;SDS011;5437;50.852;4.438;2023-04-01T07:12:43;6.53;;;4.57;;
10769;SDS011;5437;50.852;4.438;2023-04-01T07:15:17;4.95;;;4.30;;
10769;SDS011;5437;50.852;4.438;2023-04-01T07:17:45;5.28;;;4.43;;
10769;SDS011;5437;50.852;4.438;2023-04-01T07:20:28;4.43;;;4.00;;
10769;SDS011;5437;50.852;4.438;2023-04-01T07:23:00;4.30;;;3.90;;
10769;SDS011;5437;50.852;4.438;2023-04-01T07:25:43;4.82;;;3.90;;
10769;SDS011;5437;50.852;4.438;2023-04-01T07:28:14;3.30;;;3.00;;
10769;SDS011;5437;50.852;4.438;2023-04-01T07:30:57;4.07;;;3.38;;
10769;SDS011;5437;50.852;4.438;2023-04-01T07:35:59;3.90;;;2.60;;
10769;SDS011;5437;50.852;4.438;2023-04-01T07:41:06;3.60;;;2.75;;
10769;SDS011;5437;50.852;4.438;2023-04-01T07:43:43;4.03;;;2.55;;
10769;SDS011;5437;50.852;4.438;2023-04-01T07:48:53;2.15;;;1.80;;
10769;SDS011;5437;50.852;4.438;2023-04-01T07:51:24;2.45;;;2.25;;
10769;SDS011;5437;50.852;4.438;2023-04-01T07:56:37;4.00;;;3.60;;
10769;SDS011;5437;50.852;4.438;2023-04-01T08:09:31;1.88;;;1.77;;
10769;SDS011;5437;50.852;4.438;2023-04-01T08:14:37;3.38;;;2.10;;
10769;SDS011;5437;50.852;4.438;2023-04-01T08:17:09;1.98;;;1.88;;
10769;SDS011;5437;50.852;4.438;2023-04-01T08:22:09;1.83;;;1.60;;
10769;SDS011;5437;50.852;4.438;2023-04-01T08:24:38;2.28;;;1.60;;
10769;SDS011;5437;50.852;4.438;2023-04-01T08:27:09;1.58;;;1.48;;
10769;SDS011;5437;50.852;4.438;2023-04-01T08:29:51;1.80;;;1.70;;
10769;SDS011;5437;50.852;4.438;2023-04-01T08:32:21;1.92;;;1.40;;
10769;SDS011;5437;50.852;4.438;2023-04-01T08:34:51;1.40;;;1.30;;
10769;SDS011;5437;50.852;4.438;2023-04-01T08:37:21;2.22;;;1.40;;
10769;SDS011;5437;50.852;4.438;2023-04-01T08:48:15;2.38;;;1.30;;
10769;SDS011;5437;50.852;4.438;2023-04-01T08:56:43;1.50;;;1.40;;
10769;SDS011;5437;50.852;4.438;2023-04-01T09:18:10;1.30;;;1.20;;
10769;SDS011;5437;50.852;4.438;2023-04-01T09:36:38;2.33;;;1.92;;
10769;SDS011;5437;50.852;4.438;2023-04-01T09:38:55;1.80;;;1.70;;
10769;SDS011;5437;50.852;4.438;2023-04-01T09:46:26;2.20;;;2.00;;
10769;SDS011;5437;50.852;4.438;2023-04-01T09:54:24;2.55;;;2.03;;
10769;SDS011;5437;50.852;4.438;2023-04-01T10:20:28;2.53;;;1.83;;
10769;SDS011;5437;50.852;4.438;2023-04-01T10:28:24;3.67;;;2.20;;
10769;SDS011;5437;50.852;4.438;2023-04-01T10:41:42;2.85;;;1.95;;
10769;SDS011;5437;50.852;4.438;2023-04-01T10:49:41;3.72;;;1.38;;
10769;SDS011;5437;50.852;4.438;2023-04-01T10:54:58;1.30;;;1.20;;
10769;SDS011;5437;50.852;4.438;2023-04-01T11:00:23;1.00;;;1.00;;
10769;SDS011;5437;50.852;4.438;2023-04-01T11:13:36;1.88;;;1.20;;
10769;SDS011;5437;50.852;4.438;2023-04-01T11:42:37;1.60;;;1.50;;
10769;SDS011;5437;50.852;4.438;2023-04-01T11:58:00;2.03;;;1.92;;
10769;SDS011;5437;50.852;4.438;2023-04-01T12:08:36;1.65;;;1.50;;
10769;SDS011;5437;50.852;4.438;2023-04-01T12:11:06;1.60;;;1.50;;
10769;SDS011;5437;50.852;4.438;2023-04-01T12:18:57;2.28;;;1.65;;
10769;SDS011;5437;50.852;4.438;2023-04-01T12:26:27;3.33;;;1.85;;
10769;SDS011;5437;50.852;4.438;2023-04-01T12:36:52;2.55;;;2.20;;
10769;SDS011;5437;50.852;4.438;2023-04-01T12:39:33;3.28;;;2.20;;
10769;SDS011;5437;50.852;4.438;2023-04-01T12:42:11;2.70;;;2.28;;
10769;SDS011;5437;50.852;4.438;2023-04-01T13:15:25;3.47;;;1.95;;
10769;SDS011;5437;50.852;4.438;2023-04-01T13:20:30;2.83;;;2.05;;
10769;SDS011;5437;50.852;4.438;2023-04-01T13:25:37;2.00;;;1.90;;
10769;SDS011;5437;50.852;4.438;2023-04-01T13:28:26;2.45;;;1.95;;
10769;SDS011;5437;50.852;4.438;2023-04-01T13:34:08;2.08;;;1.60;;
10769;SDS011;5437;50.852;4.438;2023-04-01T13:42:12;1.63;;;1.50;;
10769;SDS011;5437;50.852;4.438;2023-04-01T13:49:53;1.70;;;1.60;;
10769;SDS011;5437;50.852;4.438;2023-04-01T13:52:29;2.10;;;1.55;;
10769;SDS011;5437;50.852;4.438;2023-04-01T13:57:52;1.40;;;1.30;;
10769;SDS011;5437;50.852;4.438;2023-04-01T14:00:35;1.70;;;1.60;;
10769;SDS011;5437;50.852;4.438;2023-04-01T14:11:07;1.40;;;1.30;;
10769;SDS011;5437;50.852;4.438;2023-04-01T14:24:17;2.22;;;1.40;;
10769;SDS011;5437;50.852;4.438;2023-04-01T14:29:34;1.58;;;1.38;;
10769;SDS011;5437;50.852;4.438;2023-04-01T14:32:09;1.30;;;1.20;;
10769;SDS011;5437;50.852;4.438;2023-04-01T14:34:59;2.20;;;1.80;;
10769;SDS011;5437;50.852;4.438;2023-04-01T14:45:20;2.00;;;1.58;;
10769;SDS011;5437;50.852;4.438;2023-04-01T14:50:16;1.15;;;1.10;;
10769;SDS011;5437;50.852;4.438;2023-04-01T14:55:28;2.28;;;1.30;;
10769;SDS011;5437;50.852;4.438;2023-04-01T14:58:13;1.83;;;1.15;;
10769;SDS011;5437;50.852;4.438;2023-04-01T15:00:41;2.35;;;1.58;;
10769;SDS011;5437;50.852;4.438;2023-04-01T15:03:15;1.45;;;1.20;;
10769;SDS011;5437;50.852;4.438;2023-04-01T15:05:49;1.10;;;1.10;;
10769;SDS011;5437;50.852;4.438;2023-04-01T15:13:46;1.63;;;1.30;;
10769;SDS011;5437;50.852;4.438;2023-04-01T15:23:53;1.40;;;1.20;;
10769;SDS011;5437;50.852;4.438;2023-04-01T15:26:26;2.10;;;1.40;;
10769;SDS011;5437;50.852;4.438;2023-04-01T15:31:57;1.45;;;1.35;;
10769;SDS011;5437;50.852;4.438;2023-04-01T15:40:36;1.70;;;1.60;;
10769;SDS011;5437;50.852;4.438;2023-04-01T15:45:03;1.77;;;1.67;;
10769;SDS011;5437;50.852;4.438;2023-04-01T15:53:11;1.95;;;1.73;;
10769;SDS011;5437;50.852;4.438;2023-04-01T15:55:47;2.55;;;2.05;;
10769;SDS011;5437;50.852;4.438;2023-04-01T16:01:04;2.00;;;1.80;;
10769;SDS011;5437;50.852;4.438;2023-04-01T16:03:54;2.42;;;2.28;;
10769;SDS011;5437;50.852;4.438;2023-04-01T16:06:27;1.40;;;1.30;;
10769;SDS011;5437;50.852;4.438;2023-04-01T16:11:48;3.03;;;1.63;;
10769;SDS011;5437;50.852;4.438;2023-04-01T16:30:00;2.13;;;1.92;;
10769;SDS011;5437;50.852;4.438;2023-04-01T16:32:50;2.95;;;2.75;;
10769;SDS011;5437;50.852;4.438;2023-04-01T16:35:23;1.95;;;1.52;;
10769;SDS011;5437;50.852;4.438;2023-04-01T16:37:53;2.22;;;2.13;;
10769;SDS011;5437;50.852;4.438;2023-04-01T16:45:33;3.08;;;2.20;;
10769;SDS011;5437;50.852;4.438;2023-04-01T16:48:14;2.75;;;2.40;;
10769;SDS011;5437;50.852;4.438;2023-04-01T16:55:52;2.45;;;2.00;;
10769;SDS011;5437;50.852;4.438;2023-04-01T16:58:38;2.50;;;2.13;;
10769;SDS011;5437;50.852;4.438;2023-04-01T17:01:14;2.28;;;2.10;;
10769;SDS011;5437;50.852;4.438;2023-04-01T17:03:45;2.17;;;2.00;;
10769;SDS011;5437;50.852;4.438;2023-04-01T17:09:01;2.40;;;2.20;;
10769;SDS011;5437;50.852;4.438;2023-04-01T17:11:30;2.25;;;2.00;;
10769;SDS011;5437;50.852;4.438;2023-04-01T17:24:08;1.80;;;1.65;;
10769;SDS011;5437;50.852;4.438;2023-04-01T17:26:40;1.90;;;1.80;;
10769;SDS011;5437;50.852;4.438;2023-04-01T17:34:15;2.35;;;1.98;;
10769;SDS011;5437;50.852;4.438;2023-04-01T17:39:27;3.20;;;2.20;;
10769;SDS011;5437;50.852;4.438;2023-04-01T17:49:37;3.00;;;2.13;;
10769;SDS011;5437;50.852;4.438;2023-04-01T17:52:16;1.67;;;1.58;;
10769;SDS011;5437;50.852;4.438;2023-04-01T17:54:47;2.00;;;1.90;;
10769;SDS011;5437;50.852;4.438;2023-04-01T18:08:31;2.50;;;2.30;;
10769;SDS011;5437;50.852;4.438;2023-04-01T18:13:29;2.63;;;2.40;;
10769;SDS011;5437;50.852;4.438;2023-04-01T18:16:11;3.13;;;2.58;;
10769;SDS011;5437;50.852;4.438;2023-04-01T18:18:45;2.67;;;2.50;;
10769;SDS011;5437;50.852;4.438;2023-04-01T18:21:22;3.03;;;2.83;;
10769;SDS011;5437;50.852;4.438;2023-04-01T18:23:58;3.53;;;3.22;;
10769;SDS011;5437;50.852;4.438;2023-04-01T18:26:29;3.60;;;3.30;;
10769;SDS011;5437;50.852;4.438;2023-04-01T18:29:03;3.88;;;3.50;;
10769;SDS011;5437;50.852;4.438;2023-04-01T18:31:37;4.65;;;4.15;;
10769;SDS011;5437;50.852;4.438;2023-04-01T18:34:10;4.22;;;3.83;;
10769;SDS011;5437;50.852;4.438;2023-04-01T18:36:49;4.65;;;4.25;;
10769;SDS011;5437;50.852;4.438;2023-04-01T18:39:23;4.88;;;4.47;;
10769;SDS011;5437;50.852;4.438;2023-04-01T18:44:27;6.20;;;5.70;;
10769;SDS011;5437;50.852;4.438;2023-04-01T18:47:05;5.65;;;5.13;;
10769;SDS011;5437;50.852;4.438;2023-04-01T19:05:45;7.28;;;6.38;;
10769;SDS011;5437;50.852;4.438;2023-04-01T19:08:14;7.32;;;6.63;;
10769;SDS011;5437;50.852;4.438;2023-04-01T19:10:49;7.65;;;6.95;;
10769;SDS011;5437;50.852;4.438;2023-04-01T19:13:25;7.20;;;6.50;;
10769;SDS011;5437;50.852;4.438;2023-04-01T19:16:04;9.70;;;6.90;;
10769;SDS011;5437;50.852;4.438;2023-04-01T19:25:52;9.70;;;8.68;;
10769;SDS011;5437;50.852;4.438;2023-04-01T19:41:38;10.48;;;8.18;;
10769;SDS011;5437;50.852;4.438;2023-04-01T19:44:16;9.30;;;7.95;;
10769;SDS011;5437;50.852;4.438;2023-04-01T19:47:11;12.70;;;8.60;;
10769;SDS011;5437;50.852;4.438;2023-04-01T19:49:44;10.40;;;7.25;;
10769;SDS011;5437;50.852;4.438;2023-04-01T19:57:30;11.40;;;8.57;;
10769;SDS011;5437;50.852;4.438;2023-04-01T20:02:33;12.23;;;9.10;;
10769;SDS011;5437;50.852;4.438;2023-04-01T20:05:17;10.30;;;7.85;;
10769;SDS011;5437;50.852;4.438;2023-04-01T20:07:46;10.45;;;8.55;;
10769;SDS011;5437;50.852;4.438;2023-04-01T20:10:32;12.65;;;8.02;;
10769;SDS011;5437;50.852;4.438;2023-04-01T20:13:15;8.50;;;6.68;;
10769;SDS011;5437;50.852;4.438;2023-04-01T20:15:43;9.50;;;7.93;;
10769;SDS011;5437;50.852;4.438;2023-04-01T20:20:39;8.65;;;7.20;;
10769;SDS011;5437;50.852;4.438;2023-04-01T20:28:01;12.80;;;7.70;;
10769;SDS011;5437;50.852;4.438;2023-04-01T20:36:04;13.40;;;9.43;;
10769;SDS011;5437;50.852;4.438;2023-04-01T20:38:48;12.48;;;8.68;;
10769;SDS011;5437;50.852;4.438;2023-04-01T20:41:26;11.73;;;8.23;;
10769;SDS011;5437;50.852;4.438;2023-04-01T20:44:04;13.13;;;8.52;;
10769;SDS011;5437;50.852;4.438;2023-04-01T20:46:46;11.77;;;8.52;;
10769;SDS011;5437;50.852;4.438;2023-04-01T20:49:20;11.35;;;7.50;;
10769;SDS011;5437;50.852;4.438;2023-04-01T20:57:05;11.02;;;6.90;;
10769;SDS011;5437;50.852;4.438;2023-04-01T21:13:14;12.43;;;8.55;;
10769;SDS011;5437;50.852;4.438;2023-04-01T21:18:51;12.75;;;9.63;;
10769;SDS011;5437;50.852;4.438;2023-04-01T21:23:39;14.60;;;10.98;;
10769;SDS011;5437;50.852;4.438;2023-04-01T21:31:25;14.90;;;11.10;;
10769;SDS011;5437;50.852;4.438;2023-04-01T21:39:22;13.38;;;10.05;;
10769;SDS011;5437;50.852;4.438;2023-04-01T21:50:03;12.30;;;9.60;;
10769;SDS011;5437;50.852;4.438;2023-04-01T21:55:37;10.40;;;9.18;;
10769;SDS011;5437;50.852;4.438;2023-04-01T22:06:51;12.52;;;10.13;;
10769;SDS011;5437;50.852;4.438;2023-04-01T22:09:10;12.30;;;8.90;;
10769;SDS011;5437;50.852;4.438;2023-04-01T22:14:24;12.02;;;8.93;;
10769;SDS011;5437;50.852;4.438;2023-04-01T22:16:58;10.73;;;9.18;;
10769;SDS011;5437;50.852;4.438;2023-04-01T22:22:14;10.20;;;8.35;;
10769;SDS011;5437;50.852;4.438;2023-04-01T22:29:59;9.23;;;8.27;;
10769;SDS011;5437;50.852;4.438;2023-04-01T22:42:44;9.60;;;8.70;;
10769;SDS011;5437;50.852;4.438;2023-04-01T22:50:34;13.02;;;11.13;;
10769;SDS011;5437;50.852;4.438;2023-04-01T22:53:15;12.32;;;10.48;;
10769;SDS011;5437;50.852;4.438;2023-04-01T22:55:42;12.73;;;10.00;;
10769;SDS011;5437;50.852;4.438;2023-04-01T22:58:14;11.10;;;9.77;;
10769;SDS011;5437;50.852;4.438;2023-04-01T23:05:37;11.57;;;10.05;;
10769;SDS011;5437;50.852;4.438;2023-04-01T23:10:51;11.07;;;9.88;;
10769;SDS011;5437;50.852;4.438;2023-04-01T23:13:20;10.50;;;9.07;;
10769;SDS011;5437;50.852;4.438;2023-04-01T23:15:48;11.23;;;9.35;;
10769;SDS011;5437;50.852;4.438;2023-04-01T23:18:24;11.15;;;9.60;;
10769;SDS011;5437;50.852;4.438;2023-04-01T23:23:42;11.10;;;9.60;;
10769;SDS011;5437;50.852;4.438;2023-04-01T23:28:50;12.00;;;9.95;;
10769;SDS011;5437;50.852;4.438;2023-04-01T23:31:30;11.25;;;10.05;;
10769;SDS011;5437;50.852;4.438;2023-04-01T23:36:39;10.82;;;9.73;;
10769;SDS011;5437;50.852;4.438;2023-04-01T23:39:14;10.30;;;9.20;;
10769;SDS011;5437;50.852;4.438;2023-04-01T23:41:42;11.30;;;9.50;;
10769;SDS011;5437;50.852;4.438;2023-04-01T23:44:11;11.18;;;9.93;;
10769;SDS011;5437;50.852;4.438;2023-04-01T23:46:38;11.63;;;9.88;;
10769;SDS011;5437;50.852;4.438;2023-04-01T23:49:05;11.80;;;10.30;;
10769;SDS011;5437;50.852;4.438;2023-04-01T23:51:36;12.88;;;10.55;;
10769;SDS011;5437;50.852;4.438;2023-04-01T23:56:47;13.73;;;11.57;;
10769;SDS011;5437;50.852;4.438;2023-04-01T23:59:15;12.57;;;11.23;;
